La Abraq Airport


Codes: HLLQ/LAQ
Name: La Abraq Airport
City: Al Bayda
Country: Libya
Elevation: 2157 ft.
Wikipedia:

Photos at La Abraq Airport


   Photos courtesy of SpottingLog. You can add your own sightings and photos by signing up for a free trial today.



No photos found.

Weather at La Abraq Airport


Time (UTC)DescriptionTempratureWindCloud coverageVisibilityPressureHumidity
18-Apr-2024 00:00Overcast Clouds12°C27 mph, W89%10000m1012hPa86%
18-Apr-2024 03:00Broken Clouds11°C22 mph, W56%10000m1012hPa93%
18-Apr-2024 06:00Scattered Clouds13°C27 mph, W35%10000m1013hPa71%
18-Apr-2024 09:00Clear Sky17°C29 mph, W0%10000m1014hPa49%
18-Apr-2024 12:00Clear Sky18°C29 mph, NW0%10000m1014hPa48%
18-Apr-2024 15:00Clear Sky17°C20 mph, W0%10000m1015hPa44%
18-Apr-2024 18:00Clear Sky13°C11 mph, W1%10000m1016hPa57%
18-Apr-2024 21:00Clear Sky15°C9 mph, SW2%10000m1015hPa51%
19-Apr-2024 00:00Clear Sky15°C9 mph, SW1%10000m1014hPa50%
19-Apr-2024 03:00Clear Sky13°C9 mph, SW2%10000m1014hPa60%
19-Apr-2024 06:00Clear Sky19°C13 mph, SW2%10000m1013hPa44%
19-Apr-2024 09:00Scattered Clouds23°C25 mph, SW31%10000m1012hPa34%
19-Apr-2024 12:00Few Clouds27°C29 mph, SW16%10000m1009hPa22%
19-Apr-2024 15:00Broken Clouds25°C25 mph, W56%10000m1007hPa27%
19-Apr-2024 18:00Broken Clouds13°C20 mph, NW73%832m1011hPa96%
19-Apr-2024 21:00Overcast Clouds12°C22 mph, NW100%10000m1011hPa92%
20-Apr-2024 00:00Overcast Clouds11°C27 mph, NW99%10000m1011hPa79%
20-Apr-2024 03:00Scattered Clouds10°C27 mph, NW42%10000m1011hPa80%
20-Apr-2024 06:00Broken Clouds12°C25 mph, NW54%10000m1012hPa71%
20-Apr-2024 09:00Clear Sky15°C20 mph, NW9%10000m1014hPa59%
20-Apr-2024 12:00Clear Sky16°C18 mph, NW4%10000m1014hPa54%
20-Apr-2024 15:00Clear Sky14°C13 mph, NW0%10000m1015hPa60%
20-Apr-2024 18:00Clear Sky10°C7 mph, NW0%10000m1016hPa86%
20-Apr-2024 21:00Clear Sky9°C2 mph, W3%10000m1016hPa90%
21-Apr-2024 00:00Clear Sky8°C2 mph, W7%10000m1015hPa81%
21-Apr-2024 03:00Clear Sky9°C4 mph, S0%10000m1014hPa53%
21-Apr-2024 06:00Clear Sky14°C4 mph, S1%10000m1014hPa49%
21-Apr-2024 09:00Clear Sky20°C7 mph, SW0%10000m1014hPa27%
21-Apr-2024 12:00Clear Sky23°C4 mph, W1%10000m1013hPa27%
21-Apr-2024 15:00Clear Sky22°C4 mph, SW8%10000m1012hPa29%
21-Apr-2024 18:00Scattered Clouds14°C11 mph, SE28%10000m1014hPa68%
21-Apr-2024 21:00Overcast Clouds15°C13 mph, SE100%10000m1014hPa61%
22-Apr-2024 00:00Overcast Clouds15°C22 mph, SE92%10000m1011hPa59%
22-Apr-2024 03:00Overcast Clouds17°C34 mph, S98%10000m1009hPa42%
22-Apr-2024 06:00Overcast Clouds20°C36 mph, S99%10000m1008hPa34%
22-Apr-2024 09:00Overcast Clouds24°C40 mph, S100%10000m1007hPa25%
22-Apr-2024 12:00Overcast Clouds28°C34 mph, S100%10000m1007hPa19%
22-Apr-2024 15:00Overcast Clouds29°C31 mph, S100%10000m1005hPa17%
22-Apr-2024 18:00Overcast Clouds26°C29 mph, SE100%10000m1006hPa23%
22-Apr-2024 21:00Overcast Clouds24°C31 mph, SE100%10000m1006hPa19%